Nineteen, Kentucky
Current Conditions -  °F | °C
As of 7:15 AM on Thursday 27 Nov 2014 (Local Time) from K2I0 Reporting Station
Overcast Overcast  
Wind Chill: 26°   Ceiling: 1700
Heat Index: 33°   Visibility: 10mi
Dew Point: 31°   Wind: 9mph
Humidity: 89%   Direction: 320°NW
Pressure: 30.36"   Gusts: NA
Location:  37.3559°N, 86.8747°W
Report Text: K2I0 271315Z AUTO 32008KT 10SM OVC017 01/M01 A3036 RMK AO2 T00081008
Loading
Personal Weather Stations






























Interactive Weather Map New forecast layout! Learn more

10-Day Weather Forecast

Advertisements
Track Severe Weather on mobile